Time;durP1;ratioP1;P1;durP2;ratioP2;P2;SDS_P1;SDS_P2;PMS_P1;PMS_P2;Temp;Humidity;BMP_temperature;BMP_pressure;BME280_temperature;BME280_humidity;BME280_pressure;Samples;Min_cycle;Max_cycle;Signal;HPM_P1;HPM_P2
2024/04/14 00:00:08;;;;;;;2.33;2.03;;;14.90;99.90;;;;;;487681;244;29329;-73
2024/04/14 00:02:09;;;;;;;3.80;2.77;;;14.90;99.90;;;;;;468181;254;28818;-74
2024/04/14 00:04:11;;;;;;;2.67;2.40;;;14.90;99.90;;;;;;489238;243;28900;-71
2024/04/14 00:06:12;;;;;;;2.83;2.47;;;14.80;99.90;;;;;;487694;244;28835;-72
2024/04/14 00:08:14;;;;;;;3.37;2.43;;;14.70;99.90;;;;;;487692;244;28799;-72
2024/04/14 00:10:14;;;;;;;2.97;2.40;;;14.70;99.90;;;;;;468118;254;28825;-71
2024/04/14 00:12:16;;;;;;;2.40;2.20;;;14.70;99.90;;;;;;489232;243;28924;-73
2024/04/14 00:14:17;;;;;;;5.90;3.13;;;14.60;99.90;;;;;;487709;244;28722;-73
2024/04/14 00:16:18;;;;;;;2.57;2.37;;;14.60;99.90;;;;;;487673;244;28910;-72
2024/04/14 00:18:19;;;;;;;2.63;2.43;;;14.60;99.90;;;;;;468174;254;29462;-75
2024/04/14 00:20:22;;;;;;;2.37;2.10;;;14.60;99.90;;;;;;489189;243;29202;-73
2024/04/14 00:22:22;;;;;;;2.73;2.53;;;14.60;99.90;;;;;;487484;244;29575;-73
2024/04/14 00:24:23;;;;;;;3.17;2.30;;;14.50;99.90;;;;;;487593;244;29384;-73
2024/04/14 00:26:24;;;;;;;2.10;1.90;;;14.60;99.90;;;;;;468073;254;28921;-74
2024/04/14 00:28:26;;;;;;;4.60;2.40;;;14.50;99.90;;;;;;489185;243;28859;-72
2024/04/14 00:30:27;;;;;;;4.13;2.83;;;14.50;99.90;;;;;;487665;244;28879;-73
2024/04/14 00:32:28;;;;;;;3.20;2.40;;;14.50;99.90;;;;;;487604;244;28827;-71
2024/04/14 00:34:29;;;;;;;1.90;1.80;;;14.50;99.90;;;;;;468127;254;28780;-72
2024/04/14 00:36:31;;;;;;;2.10;2.00;;;14.50;99.90;;;;;;489066;241;28901;-74
2024/04/14 00:38:32;;;;;;;2.53;2.30;;;14.50;99.90;;;;;;488730;243;28548;-72
2024/04/14 00:40:33;;;;;;;2.63;2.43;;;14.40;99.90;;;;;;470052;251;28974;-71
2024/04/14 00:42:35;;;;;;;2.80;2.60;;;14.40;99.90;;;;;;487700;244;28544;-71
2024/04/14 00:44:36;;;;;;;3.93;2.30;;;14.40;99.90;;;;;;487698;244;29727;-71
2024/04/14 00:46:37;;;;;;;2.87;2.40;;;14.40;99.90;;;;;;487669;244;29947;-71
2024/04/14 00:48:38;;;;;;;4.77;2.30;;;14.40;99.90;;;;;;487697;244;28914;-71
2024/04/14 00:50:39;;;;;;;4.10;2.30;;;14.50;99.90;;;;;;487712;244;28803;-71
2024/04/14 00:52:41;;;;;;;2.73;2.13;;;14.40;99.90;;;;;;487712;244;28828;-71
2024/04/14 00:54:42;;;;;;;3.57;2.63;;;14.40;99.90;;;;;;487720;244;28415;-70
2024/04/14 00:56:43;;;;;;;3.23;2.37;;;14.40;99.90;;;;;;487723;244;28796;-71
2024/04/14 00:58:44;;;;;;;2.27;2.07;;;14.40;99.90;;;;;;487735;244;28865;-71
2024/04/14 01:00:46;;;;;;;3.00;2.50;;;14.40;99.90;;;;;;487692;244;28915;-71
2024/04/14 01:02:50;;;;;;;2.73;2.27;;;14.40;99.90;;;;;;487701;244;28933;-70
2024/04/14 01:04:48;;;;;;;3.53;2.30;;;14.30;99.90;;;;;;487483;244;28875;-74
2024/04/14 01:06:49;;;;;;;2.20;2.10;;;14.30;99.90;;;;;;487715;244;28426;-74
2024/04/14 01:08:51;;;;;;;3.20;2.13;;;14.30;99.90;;;;;;487726;244;29044;-74
2024/04/14 01:10:52;;;;;;;1.97;1.87;;;14.20;99.90;;;;;;487714;244;29308;-74
2024/04/14 01:12:53;;;;;;;2.30;2.10;;;14.20;99.90;;;;;;487718;244;29238;-73
2024/04/14 01:14:55;;;;;;;2.40;2.20;;;14.20;99.90;;;;;;487722;244;28824;-73
2024/04/14 01:16:56;;;;;;;4.20;2.73;;;14.10;99.90;;;;;;487736;244;28803;-72
2024/04/14 01:18:57;;;;;;;2.40;2.20;;;14.10;99.90;;;;;;487744;244;28601;-73
2024/04/14 01:20:58;;;;;;;2.23;2.10;;;14.20;99.90;;;;;;487741;244;28530;-71
2024/04/14 01:22:59;;;;;;;3.53;2.30;;;14.10;99.90;;;;;;487759;244;28726;-72
2024/04/14 01:25:01;;;;;;;3.53;2.20;;;14.10;99.90;;;;;;487746;244;28756;-72
2024/04/14 01:27:02;;;;;;;2.80;2.00;;;14.10;99.90;;;;;;487727;244;28521;-73
2024/04/14 01:29:03;;;;;;;2.30;2.07;;;14.00;99.90;;;;;;487737;244;28377;-71
2024/04/14 01:31:04;;;;;;;2.30;2.13;;;14.00;99.90;;;;;;487712;244;28563;-74
2024/04/14 01:33:06;;;;;;;2.40;2.20;;;14.00;99.90;;;;;;487740;244;29352;-72
2024/04/14 01:35:07;;;;;;;2.17;2.07;;;14.00;99.90;;;;;;487719;244;29310;-71
2024/04/14 01:37:08;;;;;;;4.20;2.17;;;14.00;99.90;;;;;;487737;244;29189;-72
2024/04/14 01:39:10;;;;;;;3.03;2.47;;;14.00;99.90;;;;;;487721;244;29397;-73
2024/04/14 01:41:11;;;;;;;4.53;2.47;;;14.00;99.90;;;;;;487752;244;28825;-74
2024/04/14 01:43:12;;;;;;;4.43;2.57;;;14.00;99.90;;;;;;487706;244;28413;-71
2024/04/14 01:45:15;;;;;;;3.10;2.20;;;14.00;99.90;;;;;;487711;244;28347;-71
2024/04/14 01:47:14;;;;;;;2.60;2.27;;;14.00;99.90;;;;;;487612;244;28636;-73
2024/04/14 01:49:16;;;;;;;2.57;2.30;;;14.00;99.90;;;;;;487728;244;28398;-72
2024/04/14 01:51:17;;;;;;;2.43;2.20;;;14.00;99.90;;;;;;487691;244;28831;-74
2024/04/14 01:53:18;;;;;;;5.90;2.73;;;14.10;99.90;;;;;;487707;244;28827;-73
2024/04/14 01:55:19;;;;;;;3.60;2.60;;;14.10;99.90;;;;;;487630;244;28431;-71
2024/04/14 01:57:21;;;;;;;2.33;2.13;;;14.00;99.90;;;;;;487635;244;28975;-73
2024/04/14 01:59:22;;;;;;;2.20;2.00;;;14.10;99.90;;;;;;487690;244;28946;-71
2024/04/14 02:01:23;;;;;;;3.20;2.10;;;14.00;99.90;;;;;;487706;244;29321;-71
2024/04/14 02:03:24;;;;;;;2.07;1.87;;;13.90;99.90;;;;;;487711;244;28985;-71
2024/04/14 02:05:26;;;;;;;4.07;1.93;;;13.90;99.90;;;;;;487705;244;28530;-71
2024/04/14 02:07:27;;;;;;;2.63;2.07;;;13.90;99.90;;;;;;487722;244;28448;-75
2024/04/14 02:09:28;;;;;;;2.00;1.80;;;13.90;99.90;;;;;;487722;244;28556;-73
2024/04/14 02:11:29;;;;;;;2.10;1.90;;;13.80;99.90;;;;;;487710;244;28324;-73
2024/04/14 02:13:31;;;;;;;2.17;2.00;;;13.90;99.90;;;;;;487698;244;28984;-73
2024/04/14 02:15:32;;;;;;;2.67;2.23;;;13.90;99.90;;;;;;487715;244;28245;-73
2024/04/14 02:17:33;;;;;;;3.83;2.33;;;13.90;99.90;;;;;;487720;244;28437;-73
2024/04/14 02:19:34;;;;;;;4.93;2.20;;;13.90;99.90;;;;;;487703;244;28358;-72
2024/04/14 02:21:36;;;;;;;2.40;2.20;;;14.00;99.90;;;;;;487693;244;28510;-73
2024/04/14 02:23:40;;;;;;;2.40;2.20;;;14.00;99.90;;;;;;487703;244;29411;-73
2024/04/14 02:25:41;;;;;;;3.37;1.90;;;13.90;99.90;;;;;;487701;244;29073;-74
2024/04/14 02:27:42;;;;;;;2.03;1.83;;;13.90;99.90;;;;;;487701;244;31201;-72
2024/04/14 02:29:43;;;;;;;3.00;2.20;;;13.90;99.90;;;;;;487695;244;28944;-74
2024/04/14 02:31:45;;;;;;;4.10;2.20;;;13.90;99.90;;;;;;487697;244;28897;-72
2024/04/14 02:33:46;;;;;;;3.57;2.10;;;13.90;99.90;;;;;;487677;244;28423;-73
2024/04/14 02:35:47;;;;;;;3.43;2.30;;;13.90;99.90;;;;;;487748;244;28459;-74
2024/04/14 02:37:48;;;;;;;3.73;2.30;;;13.90;99.90;;;;;;487740;244;28400;-73
2024/04/14 02:39:50;;;;;;;2.00;1.90;;;13.80;99.90;;;;;;487730;244;28666;-71
2024/04/14 02:41:52;;;;;;;3.53;2.10;;;13.80;99.90;;;;;;487710;244;28394;-73
2024/04/14 02:43:52;;;;;;;2.10;1.70;;;13.80;99.90;;;;;;487728;244;28732;-73
2024/04/14 02:45:54;;;;;;;2.87;2.03;;;13.70;99.90;;;;;;487742;244;28426;-73
2024/04/14 02:47:55;;;;;;;2.73;1.80;;;13.70;99.90;;;;;;487699;244;28550;-73
2024/04/14 02:49:56;;;;;;;2.63;2.40;;;13.70;99.90;;;;;;487729;244;28635;-71
2024/04/14 02:51:57;;;;;;;2.40;2.13;;;13.70;99.90;;;;;;487722;244;29505;-74
2024/04/14 02:53:59;;;;;;;1.90;1.80;;;13.80;99.90;;;;;;487755;244;29274;-73
2024/04/14 02:56:00;;;;;;;3.13;2.37;;;13.80;99.90;;;;;;487721;244;28931;-74
2024/04/14 02:58:01;;;;;;;1.83;1.73;;;13.70;99.90;;;;;;487724;244;28706;-73
2024/04/14 03:00:02;;;;;;;1.90;1.80;;;13.70;99.90;;;;;;487724;244;28508;-73
2024/04/14 03:02:04;;;;;;;2.10;1.93;;;13.60;99.90;;;;;;487729;242;28441;-72
2024/04/14 03:04:06;;;;;;;2.03;1.93;;;13.60;99.90;;;;;;487743;244;28653;-71
2024/04/14 03:06:06;;;;;;;3.10;2.10;;;13.60;99.90;;;;;;487706;244;28633;-71
2024/04/14 03:08:07;;;;;;;2.80;2.17;;;13.60;99.90;;;;;;487697;244;28488;-71
2024/04/14 03:10:09;;;;;;;3.60;2.50;;;13.70;99.90;;;;;;487720;244;29098;-73
2024/04/14 03:12:10;;;;;;;4.80;2.67;;;13.60;99.90;;;;;;487705;244;29386;-74
2024/04/14 03:14:11;;;;;;;4.30;2.80;;;13.70;99.90;;;;;;487732;244;28873;-73
2024/04/14 03:16:13;;;;;;;2.30;2.13;;;13.60;99.90;;;;;;487713;244;28894;-72
2024/04/14 03:18:14;;;;;;;2.60;2.20;;;13.60;99.90;;;;;;487721;244;28422;-72
2024/04/14 03:20:15;;;;;;;2.53;2.13;;;13.60;99.90;;;;;;487755;244;28470;-71
2024/04/14 03:22:16;;;;;;;3.60;2.20;;;13.50;99.90;;;;;;487712;244;28230;-72
2024/04/14 03:24:18;;;;;;;2.03;1.93;;;13.60;99.90;;;;;;487714;244;28311;-72
2024/04/14 03:26:19;;;;;;;2.67;2.00;;;13.60;99.90;;;;;;487668;244;28211;-73
2024/04/14 03:28:20;;;;;;;3.80;3.00;;;13.60;99.90;;;;;;487683;244;28337;-73
2024/04/14 03:30:21;;;;;;;2.73;2.20;;;13.60;99.90;;;;;;487729;244;28312;-73
2024/04/14 03:32:22;;;;;;;2.90;2.10;;;13.60;99.90;;;;;;487706;244;28530;-71
2024/04/14 03:34:24;;;;;;;2.93;2.30;;;13.60;99.90;;;;;;487718;244;28274;-74
2024/04/14 03:36:25;;;;;;;3.80;2.30;;;13.60;99.90;;;;;;487725;244;28927;-72
2024/04/14 03:38:26;;;;;;;2.10;1.90;;;13.50;99.90;;;;;;487747;244;28789;-73
2024/04/14 03:40:27;;;;;;;3.53;2.30;;;13.50;99.90;;;;;;487715;244;28843;-73
2024/04/14 03:42:29;;;;;;;3.70;2.07;;;13.50;99.90;;;;;;487717;244;28312;-70
2024/04/14 03:44:30;;;;;;;2.90;1.93;;;13.40;99.90;;;;;;487681;244;28482;-71
2024/04/14 03:46:31;;;;;;;2.60;1.93;;;13.40;99.90;;;;;;487710;244;28215;-71
2024/04/14 03:48:32;;;;;;;4.33;2.60;;;13.40;99.90;;;;;;487724;244;28417;-72
2024/04/14 03:50:35;;;;;;;5.30;2.73;;;;;;;;;;487749;244;28550;-71
2024/04/14 03:52:36;;;;;;;2.73;2.20;;;13.40;99.90;;;;;;487733;244;27457;-71
2024/04/14 03:54:38;;;;;;;2.70;2.27;;;13.30;99.90;;;;;;487722;244;28304;-71
2024/04/14 03:56:39;;;;;;;3.20;2.30;;;13.30;99.90;;;;;;487719;244;28305;-71
2024/04/14 03:58:40;;;;;;;2.27;2.03;;;13.30;99.90;;;;;;487732;244;28102;-73
2024/04/14 04:00:41;;;;;;;2.73;2.10;;;13.30;99.90;;;;;;487680;244;28531;-73
2024/04/14 04:02:42;;;;;;;3.63;2.33;;;13.30;99.90;;;;;;487726;244;28558;-74
2024/04/14 04:04:44;;;;;;;1.90;1.80;;;13.30;99.90;;;;;;487731;244;28160;-73
2024/04/14 04:06:45;;;;;;;2.40;1.97;;;13.20;99.90;;;;;;487728;244;28589;-71
2024/04/14 04:08:46;;;;;;;2.40;2.20;;;13.20;99.90;;;;;;487713;244;28305;-71
2024/04/14 04:10:47;;;;;;;5.00;2.40;;;13.30;99.90;;;;;;487714;244;28309;-70
2024/04/14 04:12:49;;;;;;;2.03;1.93;;;13.20;99.90;;;;;;487733;244;28993;-71
2024/04/14 04:14:50;;;;;;;2.30;2.03;;;13.20;99.90;;;;;;487714;244;29004;-73
2024/04/14 04:16:51;;;;;;;3.03;2.50;;;13.20;99.90;;;;;;487730;244;29058;-73
2024/04/14 04:18:52;;;;;;;3.90;2.33;;;13.20;99.90;;;;;;487722;244;28192;-70
2024/04/14 04:20:55;;;;;;;2.60;2.13;;;;;;;;;;487733;244;28337;-71
2024/04/14 04:22:56;;;;;;;2.47;2.27;;;13.10;99.90;;;;;;487741;244;26991;-72
2024/04/14 04:24:57;;;;;;;3.73;2.30;;;13.10;99.90;;;;;;487719;244;28906;-73
2024/04/14 04:26:58;;;;;;;3.67;2.50;;;13.10;99.90;;;;;;487715;244;28722;-73
2024/04/14 04:29:00;;;;;;;2.47;2.00;;;13.10;99.90;;;;;;487744;244;28721;-72
2024/04/14 04:31:01;;;;;;;5.20;2.30;;;13.00;99.90;;;;;;487778;244;28404;-74
2024/04/14 04:33:02;;;;;;;3.13;2.40;;;13.00;99.90;;;;;;487744;244;28487;-73
2024/04/14 04:35:03;;;;;;;2.90;2.10;;;13.00;99.90;;;;;;487750;244;28324;-73
2024/04/14 04:37:05;;;;;;;2.70;1.80;;;13.00;99.90;;;;;;487753;244;28178;-71
2024/04/14 04:39:07;;;;;;;2.33;2.13;;;13.00;99.90;;;;;;487769;244;28130;-71
2024/04/14 04:41:08;;;;;;;2.80;2.30;;;13.00;99.90;;;;;;487688;244;28437;-73
2024/04/14 04:43:08;;;;;;;2.43;2.23;;;13.00;99.90;;;;;;487727;244;28180;-72
2024/04/14 04:45:10;;;;;;;3.77;2.20;;;13.00;99.90;;;;;;487746;244;28312;-73
2024/04/14 04:47:11;;;;;;;3.10;2.73;;;12.90;99.90;;;;;;487744;244;28127;-73
2024/04/14 04:49:12;;;;;;;2.50;2.30;;;12.90;99.90;;;;;;487746;244;28932;-71
2024/04/14 04:51:14;;;;;;;6.33;2.47;;;12.90;99.90;;;;;;487760;244;28857;-71
2024/04/14 04:53:15;;;;;;;3.07;2.40;;;12.90;99.90;;;;;;487723;244;28933;-71
2024/04/14 04:55:16;;;;;;;3.53;2.73;;;12.90;99.90;;;;;;487724;244;28592;-70
2024/04/14 04:57:17;;;;;;;2.13;1.93;;;12.90;99.90;;;;;;487727;244;28331;-74
2024/04/14 04:59:19;;;;;;;2.53;2.33;;;12.90;99.90;;;;;;487716;244;28182;-73
2024/04/14 05:01:20;;;;;;;4.67;2.33;;;12.90;99.90;;;;;;487693;244;28218;-73
2024/04/14 05:03:21;;;;;;;2.43;2.23;;;12.90;99.90;;;;;;487542;244;28292;-74
2024/04/14 05:05:22;;;;;;;2.67;2.17;;;13.00;99.90;;;;;;487701;244;28117;-73
2024/04/14 05:07:24;;;;;;;2.40;2.20;;;13.00;99.90;;;;;;487523;244;28325;-71
2024/04/14 05:09:25;;;;;;;2.33;2.13;;;13.00;99.90;;;;;;487665;244;28212;-73
2024/04/14 05:11:26;;;;;;;2.50;2.30;;;13.00;99.90;;;;;;487547;244;28213;-73
2024/04/14 05:13:27;;;;;;;3.27;2.53;;;13.10;99.90;;;;;;487554;244;28803;-74
2024/04/14 05:15:29;;;;;;;2.57;2.37;;;13.10;99.90;;;;;;487599;244;28719;-72
2024/04/14 05:17:30;;;;;;;2.83;2.63;;;13.10;99.90;;;;;;487720;244;28794;-74
2024/04/14 05:19:40;;;;;;;2.80;2.40;;;13.10;99.90;;;;;;506646;233;36399;-70
2024/04/14 05:21:41;;;;;;;3.73;2.57;;;13.20;99.90;;;;;;503228;236;27949;-72
2024/04/14 05:23:42;;;;;;;2.73;2.53;;;13.20;99.90;;;;;;503221;236;28205;-72
2024/04/14 05:25:43;;;;;;;3.47;2.50;;;13.20;99.90;;;;;;503209;236;28378;-71
2024/04/14 05:27:45;;;;;;;3.10;2.23;;;13.30;99.90;;;;;;503226;236;28444;-72
2024/04/14 05:29:46;;;;;;;3.47;2.37;;;13.30;99.90;;;;;;503225;236;28306;-71
2024/04/14 05:31:47;;;;;;;2.70;2.43;;;13.30;99.90;;;;;;503195;236;28271;-71
2024/04/14 05:33:48;;;;;;;5.73;2.90;;;13.40;99.90;;;;;;503217;236;28505;-71
2024/04/14 05:35:50;;;;;;;3.00;2.80;;;13.40;99.90;;;;;;503247;236;28372;-73
2024/04/14 05:37:51;;;;;;;2.63;2.40;;;13.40;99.90;;;;;;503227;236;28140;-72
2024/04/14 05:39:52;;;;;;;2.63;2.37;;;13.50;99.90;;;;;;503135;236;28306;-73
2024/04/14 05:41:53;;;;;;;2.73;2.50;;;13.50;99.90;;;;;;503151;236;28350;-72
2024/04/14 05:43:55;;;;;;;3.87;2.80;;;13.50;99.90;;;;;;503221;236;28924;-71
2024/04/14 05:45:56;;;;;;;2.83;2.63;;;13.60;99.90;;;;;;503232;236;28880;-73
2024/04/14 05:47:57;;;;;;;3.03;2.73;;;13.60;99.90;;;;;;503164;236;29395;-73
2024/04/14 05:49:59;;;;;;;2.90;2.60;;;13.70;99.90;;;;;;503208;236;28502;-73
2024/04/14 05:52:00;;;;;;;2.00;1.90;;;13.70;99.90;;;;;;503212;236;28575;-73
2024/04/14 05:54:01;;;;;;;3.83;2.50;;;13.80;99.90;;;;;;503219;236;28486;-74
2024/04/14 05:56:02;;;;;;;2.73;2.53;;;13.80;99.90;;;;;;503216;236;28592;-73
2024/04/14 05:58:04;;;;;;;2.77;2.27;;;13.80;99.90;;;;;;503189;236;28351;-73
2024/04/14 06:00:05;;;;;;;3.07;2.27;;;13.80;99.90;;;;;;503214;236;28281;-73
2024/04/14 06:02:06;;;;;;;3.43;2.40;;;13.90;99.90;;;;;;503239;236;28988;-74
2024/04/14 06:04:07;;;;;;;3.30;2.80;;;13.90;99.90;;;;;;503208;236;28765;-74
2024/04/14 06:06:09;;;;;;;3.87;2.60;;;13.90;99.90;;;;;;503212;236;28889;-73
2024/04/14 06:08:12;;;;;;;3.03;2.80;;;13.90;99.90;;;;;;503203;236;28917;-73
2024/04/14 06:10:11;;;;;;;7.73;2.60;;;13.90;99.90;;;;;;503069;236;28876;-73
2024/04/14 06:12:12;;;;;;;2.63;2.43;;;14.00;99.90;;;;;;503219;236;28959;-74
2024/04/14 06:14:14;;;;;;;3.00;2.40;;;14.00;99.90;;;;;;503227;236;28557;-73
2024/04/14 06:16:15;;;;;;;3.60;2.63;;;14.00;99.90;;;;;;503209;236;28787;-73
2024/04/14 06:18:16;;;;;;;2.70;2.40;;;14.10;99.90;;;;;;503196;236;28800;-73
2024/04/14 06:20:17;;;;;;;2.70;2.43;;;14.10;99.90;;;;;;503244;236;28428;-73
2024/04/14 06:22:19;;;;;;;2.83;2.37;;;14.20;99.90;;;;;;503224;236;28650;-73
2024/04/14 06:24:20;;;;;;;2.40;2.20;;;14.20;99.90;;;;;;503207;236;28353;-73
2024/04/14 06:26:21;;;;;;;2.67;2.30;;;14.30;99.90;;;;;;503216;236;28813;-74
2024/04/14 06:28:22;;;;;;;2.50;2.30;;;14.30;99.90;;;;;;503203;236;28484;-74
2024/04/14 06:30:24;;;;;;;4.70;2.93;;;14.30;99.90;;;;;;503150;236;28872;-73
2024/04/14 06:32:25;;;;;;;3.93;2.53;;;14.40;99.90;;;;;;503123;236;29095;-75
2024/04/14 06:34:26;;;;;;;4.23;2.40;;;14.40;99.90;;;;;;503097;236;29341;-73
2024/04/14 06:36:27;;;;;;;3.67;2.40;;;14.50;99.90;;;;;;503097;236;29788;-73
2024/04/14 06:38:30;;;;;;;3.03;2.70;;;14.60;99.90;;;;;;503087;236;29495;-73
2024/04/14 06:40:30;;;;;;;2.40;2.20;;;14.70;99.90;;;;;;503060;236;28802;-73
2024/04/14 06:42:31;;;;;;;2.53;2.33;;;14.80;99.90;;;;;;503088;236;28813;-73
2024/04/14 06:44:32;;;;;;;3.10;2.33;;;14.90;99.90;;;;;;503094;236;28883;-71
2024/04/14 06:46:34;;;;;;;3.80;2.63;;;15.00;99.90;;;;;;503110;236;28861;-73
2024/04/14 06:48:35;;;;;;;3.03;2.70;;;15.10;99.90;;;;;;503124;236;28818;-74
2024/04/14 06:50:36;;;;;;;4.83;2.43;;;15.20;99.90;;;;;;503103;236;28774;-73
2024/04/14 06:52:37;;;;;;;5.47;2.60;;;15.20;99.90;;;;;;503076;236;29152;-72
2024/04/14 06:54:39;;;;;;;3.50;2.67;;;15.20;99.90;;;;;;503094;236;28765;-72
2024/04/14 06:56:40;;;;;;;4.90;2.83;;;15.30;99.90;;;;;;503101;236;29285;-71
2024/04/14 06:58:41;;;;;;;4.50;2.60;;;15.30;99.90;;;;;;503094;236;29293;-71
2024/04/14 07:00:42;;;;;;;3.07;2.67;;;15.40;99.90;;;;;;503086;236;29324;-72
2024/04/14 07:02:44;;;;;;;4.20;2.40;;;15.50;99.90;;;;;;503077;236;29301;-71
2024/04/14 07:04:45;;;;;;;3.10;2.80;;;15.50;99.90;;;;;;503106;236;28819;-73
2024/04/14 07:06:46;;;;;;;3.83;2.70;;;15.60;99.90;;;;;;503084;236;28884;-70
2024/04/14 07:08:47;;;;;;;3.20;2.90;;;15.70;99.90;;;;;;503085;236;29007;-71
2024/04/14 07:10:49;;;;;;;4.80;2.90;;;15.80;99.90;;;;;;503083;236;28881;-73
2024/04/14 07:12:50;;;;;;;2.77;2.43;;;15.80;99.90;;;;;;503066;236;28890;-73
2024/04/14 07:14:51;;;;;;;2.97;2.73;;;15.90;99.90;;;;;;503112;236;28852;-72
2024/04/14 07:16:52;;;;;;;3.80;2.70;;;16.00;99.90;;;;;;503117;236;28790;-70
2024/04/14 07:18:54;;;;;;;3.43;3.13;;;16.10;99.90;;;;;;503086;236;28822;-73
2024/04/14 07:20:55;;;;;;;3.37;3.07;;;16.20;99.90;;;;;;503100;236;28757;-72
2024/04/14 07:22:56;;;;;;;5.10;2.60;;;16.30;99.90;;;;;;503104;236;29232;-72
2024/04/14 07:24:57;;;;;;;3.10;2.77;;;16.30;99.90;;;;;;503111;236;29269;-71
2024/04/14 07:26:59;;;;;;;2.37;2.17;;;16.20;99.90;;;;;;503071;236;29235;-72
2024/04/14 07:29:00;;;;;;;8.53;2.63;;;16.30;99.90;;;;;;503116;236;28786;-73
2024/04/14 07:31:01;;;;;;;2.87;2.40;;;16.40;99.90;;;;;;503119;236;28799;-72
2024/04/14 07:33:02;;;;;;;2.90;2.53;;;16.60;99.90;;;;;;503095;236;28756;-73
2024/04/14 07:35:04;;;;;;;5.67;2.50;;;16.70;99.90;;;;;;503028;236;28806;-74
2024/04/14 07:37:05;;;;;;;2.80;2.47;;;16.90;99.90;;;;;;503110;236;28746;-73
2024/04/14 07:39:06;;;;;;;4.30;2.60;;;17.00;99.90;;;;;;503104;236;28885;-73
2024/04/14 07:41:07;;;;;;;6.33;3.00;;;17.10;99.90;;;;;;503089;236;29188;-73
2024/04/14 07:43:09;;;;;;;2.43;2.20;;;17.10;99.90;;;;;;503109;236;28866;-72
2024/04/14 07:45:13;;;;;;;2.70;2.00;;;17.20;99.90;;;;;;503106;236;28876;-74
2024/04/14 07:47:14;;;;;;;2.60;2.40;;;17.20;99.40;;;;;;503094;236;28896;-72
2024/04/14 07:49:15;;;;;;;2.33;2.13;;;17.20;99.40;;;;;;503072;236;28790;-72
2024/04/14 07:51:16;;;;;;;2.50;2.30;;;17.30;99.40;;;;;;503018;236;28836;-73
2024/04/14 07:53:18;;;;;;;3.47;2.57;;;17.20;99.70;;;;;;503112;236;28887;-75
2024/04/14 07:55:19;;;;;;;6.50;2.33;;;17.30;99.80;;;;;;503127;236;28852;-73
2024/04/14 07:57:20;;;;;;;3.07;2.27;;;17.30;99.60;;;;;;503122;236;28791;-73
2024/04/14 07:59:21;;;;;;;2.33;2.10;;;17.30;99.60;;;;;;503076;236;28758;-73
2024/04/14 08:01:23;;;;;;;4.70;2.50;;;17.30;99.90;;;;;;503088;236;28746;-73
2024/04/14 08:03:24;;;;;;;4.43;2.30;;;17.30;99.90;;;;;;503122;236;28808;-73
2024/04/14 08:05:25;;;;;;;2.60;2.40;;;17.20;99.90;;;;;;503111;236;29216;-73
2024/04/14 08:07:26;;;;;;;3.53;2.33;;;17.20;99.90;;;;;;503111;236;29285;-74
2024/04/14 08:09:28;;;;;;;6.23;2.50;;;17.20;99.90;;;;;;503083;236;29378;-74
2024/04/14 08:11:36;;;;;;;3.13;2.50;;;17.30;99.50;;;;;;503171;236;28783;-76
2024/04/14 08:13:37;;;;;;;2.50;2.30;;;17.30;99.80;;;;;;503137;236;28898;-75
2024/04/14 08:15:38;;;;;;;2.90;2.20;;;17.40;99.30;;;;;;503178;236;29284;-77
2024/04/14 08:17:41;;;;;;;4.27;2.40;;;17.50;98.90;;;;;;503172;236;29308;-76
2024/04/14 08:19:43;;;;;;;3.03;1.87;;;17.50;98.30;;;;;;503159;236;28816;-76
2024/04/14 08:21:44;;;;;;;2.33;2.13;;;17.60;98.40;;;;;;503139;236;29838;-76
2024/04/14 08:23:45;;;;;;;1.87;1.77;;;17.60;97.90;;;;;;503187;236;29286;-76
2024/04/14 08:25:46;;;;;;;2.73;2.13;;;17.60;97.80;;;;;;503150;236;29364;-76
2024/04/14 08:27:54;;;;;;;1.97;1.80;;;17.60;97.60;;;;;;503155;236;29664;-75
2024/04/14 08:29:55;;;;;;;3.40;2.10;;;17.70;97.10;;;;;;503163;236;28887;-75
2024/04/14 08:31:57;;;;;;;3.37;1.70;;;17.70;97.50;;;;;;503138;236;28791;-76
2024/04/14 08:33:58;;;;;;;3.00;1.90;;;17.70;95.90;;;;;;503110;236;28830;-76
2024/04/14 08:35:59;;;;;;;1.80;1.63;;;17.70;95.10;;;;;;503079;236;28806;-76
2024/04/14 08:38:00;;;;;;;2.07;1.90;;;17.80;95.60;;;;;;503128;236;28789;-76
2024/04/14 08:40:02;;;;;;;2.30;2.10;;;17.80;95.50;;;;;;502981;236;29268;-74
2024/04/14 08:42:03;;;;;;;2.93;1.80;;;17.80;95.60;;;;;;503146;236;28796;-76
2024/04/14 08:44:04;;;;;;;2.43;2.00;;;17.90;95.80;;;;;;503145;236;28758;-75
2024/04/14 08:46:05;;;;;;;1.87;1.70;;;18.00;95.00;;;;;;503124;236;29344;-76
2024/04/14 08:48:06;;;;;;;2.10;1.90;;;18.00;94.70;;;;;;503166;236;29304;-77
2024/04/14 08:50:10;;;;;;;3.20;1.93;;;18.10;94.30;;;;;;503122;236;29294;-75
2024/04/14 08:52:11;;;;;;;3.10;2.10;;;18.20;94.70;;;;;;503104;236;28897;-77
2024/04/14 08:54:12;;;;;;;8.50;2.13;;;18.30;94.30;;;;;;503109;236;28798;-76
2024/04/14 08:56:14;;;;;;;2.73;1.90;;;18.50;94.80;;;;;;503161;236;29198;-75
2024/04/14 08:58:15;;;;;;;2.60;1.80;;;18.50;94.10;;;;;;503166;236;29376;-77
2024/04/14 09:00:20;;;;;;;2.73;2.00;;;18.50;94.50;;;;;;503113;236;29292;-75
2024/04/14 09:02:21;;;;;;;3.90;2.23;;;18.50;94.10;;;;;;503149;236;28922;-78
2024/04/14 09:04:22;;;;;;;2.27;1.93;;;18.50;94.10;;;;;;503144;236;28756;-75
2024/04/14 09:06:23;;;;;;;1.63;1.50;;;18.50;94.60;;;;;;503140;236;28868;-75
2024/04/14 09:08:25;;;;;;;3.40;1.93;;;18.60;94.30;;;;;;503156;236;28752;-75
2024/04/14 09:10:26;;;;;;;2.87;2.27;;;18.70;93.50;;;;;;503129;236;28798;-75
2024/04/14 09:12:28;;;;;;;2.07;1.87;;;18.60;93.20;;;;;;503140;236;28936;-74
2024/04/14 09:14:30;;;;;;;10.30;1.80;;;18.50;92.70;;;;;;503034;236;28916;-76
2024/04/14 09:16:31;;;;;;;2.03;1.70;;;18.60;93.30;;;;;;503140;236;28830;-75
2024/04/14 09:18:40;;;;;;;2.13;1.53;;;18.60;93.80;;;;;;503165;236;29419;-76
2024/04/14 09:20:41;;;;;;;2.90;2.00;;;18.80;93.40;;;;;;503124;236;28840;-75
2024/04/14 09:22:42;;;;;;;2.03;1.60;;;18.80;92.60;;;;;;503122;236;28772;-75
2024/04/14 09:24:44;;;;;;;2.50;1.63;;;18.90;92.60;;;;;;503103;236;30124;-76
2024/04/14 09:26:51;;;;;;;1.73;1.50;;;18.90;92.60;;;;;;503171;236;29355;-75
2024/04/14 09:28:52;;;;;;;2.07;1.67;;;19.00;92.70;;;;;;503025;236;28808;-74
2024/04/14 09:30:53;;;;;;;1.60;1.50;;;19.00;92.70;;;;;;503132;236;29341;-75
2024/04/14 09:33:00;;;;;;;1.97;1.73;;;19.20;92.60;;;;;;503120;236;29213;-74
2024/04/14 09:35:02;;;;;;;2.07;1.67;;;19.20;93.00;;;;;;503115;236;28812;-76
2024/04/14 09:37:03;;;;;;;2.93;1.60;;;19.20;92.30;;;;;;503111;236;28846;-76
2024/04/14 09:39:04;;;;;;;3.80;2.00;;;19.10;92.20;;;;;;503136;236;29222;-75
2024/04/14 09:41:05;;;;;;;1.50;1.40;;;19.20;93.10;;;;;;503143;236;29290;-76
2024/04/14 09:43:07;;;;;;;2.53;2.20;;;19.40;92.80;;;;;;503142;236;29225;-75
2024/04/14 09:45:08;;;;;;;1.77;1.67;;;19.50;93.00;;;;;;503103;236;28816;-76
2024/04/14 09:47:09;;;;;;;1.70;1.60;;;19.50;93.00;;;;;;503015;236;28778;-76
2024/04/14 09:51:15;;;;;;;1.60;1.50;;;19.40;93.00;;;;;;502181;236;28699;-75
2024/04/14 09:53:16;;;;;;;5.23;2.43;;;19.50;92.90;;;;;;502179;236;28682;-76
2024/04/14 09:55:17;;;;;;;4.03;1.90;;;19.70;93.50;;;;;;502141;236;29301;-75
2024/04/14 09:57:21;;;;;;;1.80;1.67;;;19.70;93.40;;;;;;502192;236;29176;-76
2024/04/14 09:59:20;;;;;;;2.50;1.87;;;19.70;93.50;;;;;;502028;237;29182;-77
2024/04/14 10:01:23;;;;;;;4.53;2.40;;;19.90;94.00;;;;;;502183;236;28720;-75
2024/04/14 10:03:22;;;;;;;7.17;2.10;;;20.00;93.40;;;;;;502015;237;28708;-74
2024/04/14 10:05:23;;;;;;;2.13;1.87;;;20.00;93.10;;;;;;502214;236;28693;-75
2024/04/14 10:07:25;;;;;;;2.47;2.10;;;19.90;93.50;;;;;;502248;236;28707;-75
2024/04/14 10:09:26;;;;;;;4.50;2.20;;;19.80;94.00;;;;;;502221;236;28695;-76
2024/04/14 10:11:27;;;;;;;4.70;1.93;;;19.70;93.70;;;;;;502177;236;28646;-75
2024/04/14 10:13:28;;;;;;;2.90;2.10;;;19.70;94.30;;;;;;502208;237;28669;-75
2024/04/14 10:15:30;;;;;;;2.33;2.10;;;19.70;94.40;;;;;;502219;236;28804;-76
2024/04/14 10:17:31;;;;;;;2.73;2.10;;;19.70;94.10;;;;;;502236;236;28699;-76
2024/04/14 10:19:38;;;;;;;4.13;1.97;;;19.80;94.10;;;;;;502206;237;29107;-77
2024/04/14 10:21:39;;;;;;;2.80;2.20;;;19.90;94.10;;;;;;502166;236;28771;-75
2024/04/14 10:23:41;;;;;;;2.73;2.50;;;19.90;94.80;;;;;;502182;236;28673;-75
2024/04/14 10:25:46;;;;;;;2.73;1.97;;;20.00;95.10;;;;;;502209;236;29222;-76
2024/04/14 10:27:46;;;;;;;3.60;2.10;;;20.10;95.10;;;;;;502134;237;28660;-76
2024/04/14 10:29:47;;;;;;;2.30;1.90;;;20.00;94.10;;;;;;502206;236;29094;-76
2024/04/14 10:31:49;;;;;;;4.30;2.37;;;19.90;93.90;;;;;;502218;236;28703;-76
2024/04/14 10:33:50;;;;;;;2.83;1.90;;;20.00;95.00;;;;;;502217;236;28678;-76